• Join FlightAware (Why Join?)
  • Login
  • US Flag 
01:29AM EDT


 

Airport Tracker/Info


-or-


 

Live Flight TrackerFlight Track Log ✈ SKW4664 ✈ 08-Jun-2013 ✈ KFSD - KMSP

Flight Track Log - Related Links

Times and Time Zones

All times are in EDT time to prevent confusion due to time zone crossing. See the SKW4664 flight status page for this flight to view local times or setup timezone preferences in your user account.

Time Position Orientation Groundspeed Altitude Reporting Facility
EDT Latitude Longitude Course Direction KTS MPH feet Rate Location/Type
12:22PM 43.5592 -96.7694 52° Northeast 169 194 3,500  Level Minneapolis Center
12:23PM 43.5186 -96.7828 193° South 176 203 6,000 2,400 Climbing Minneapolis Center
12:24PM 43.4619 -96.7525 159° South 206 237 8,500 2,220 Climbing Minneapolis Center
12:25PM 43.7727 -96.3755 51° Northeast  Level FlightAware Approximate
12:25PM 43.3953 -96.7258 164° South 237 273 10,600  Level Minneapolis Center
12:26PM 43.8416 -96.2544 53° Northeast  Level FlightAware Approximate
12:26PM 43.3369 -96.6369 132° Southeast 315 362 12,100  Level Minneapolis Center
12:27PM 43.9086 -96.1314 53° Northeast  Level FlightAware Approximate
12:27PM 43.3478 -96.5108 83° East 343 395 14,400  Level Minneapolis Center
12:28PM 43.9766 -96.0091 52° Northeast  Level FlightAware Approximate
12:28PM 43.4161 -96.4156 45° Northeast 353 406 16,200  Level Minneapolis Center
12:29PM 43.5075 -96.3072 41° Northeast 361 415 18,500 1,800 Climbing Minneapolis Center
12:30PM 43.5858 -96.2147 41° Northeast 371 427 20,000 1,320 Climbing Minneapolis Center
12:31PM 43.6647 -96.1189 41° Northeast 379 436 21,300 1,200 Climbing Minneapolis Center
12:32PM 43.7458 -96.0206 41° Northeast 389 448 22,500 780 Climbing Minneapolis Center
12:34PM 43.8272 -95.9214 41° Northeast 392 451 23,000 240 Climbing Minneapolis Center
12:35PM 43.9233 -95.8039 41° Northeast 389 448 23,000  Level Minneapolis Center
12:36PM 44.0075 -95.7006 41° Northeast 403 464 23,000  Level Minneapolis Center
12:37PM 44.0925 -95.5956 42° Northeast 411 473 23,000  Level Minneapolis Center
12:38PM 44.1772 -95.4908 42° Northeast 411 473 23,000 -660 Level Minneapolis Center
12:39PM 44.2628 -95.3842 42° Northeast 414 476 21,700 -1,020 Descending Minneapolis Center
12:40PM 44.3469 -95.2797 42° Northeast 411 473 21,000 -360 Descending Minneapolis Center
12:41PM 44.4453 -95.1578 42° Northeast 401 461 21,000 -720 Level Minneapolis Center
12:42PM 44.4933 -95.0206 64° Northeast 405 466 19,600 -1,440 Descending Minneapolis Center
12:43PM 44.5278 -94.8736 72° East 402 463 18,100 -1,560 Descending Minneapolis Center
12:44PM 44.5606 -94.7356 72° East 390 449 16,500 -1,500 Descending Minneapolis Center
12:45PM 44.5919 -94.6011 72° East 377 434 15,100 -1,440 Descending Minneapolis Center
12:46PM 44.6219 -94.4714 72° East 356 410 13,600 -1,620 Descending Minneapolis Center
12:47PM 44.6575 -94.3181 72° East 348 400 11,800 -1,260 Descending Minneapolis Center
12:48PM 44.6858 -94.1925 72° East 339 390 11,000 -480 Descending Minneapolis Center
12:49PM 44.7128 -94.0681 73° East 335 386 10,900 -780 Descending Minneapolis Center
12:50PM 44.7381 -93.9561 72° East 299 344 9,500 -1,680 Descending Minneapolis Center
12:51PM 44.7656 -93.8514 70° East 287 330 7,500 -1,260 Descending Minneapolis Center
12:52PM 44.8164 -93.7725 48° Northeast 270 311 7,000 -420 Descending Minneapolis Center
12:53PM 44.8703 -93.6906 47° Northeast 281 323 6,700 -1,320 Descending Minneapolis Center
12:54PM 44.9342 -93.5944 47° Northeast 279 321 4,300 -1,320 Descending Minneapolis Center
12:55PM 44.9494 -93.4992 77° East 260 299 4,000 -240 Descending Minneapolis Center
12:56PM 44.9472 -93.4119 92° East 210 242 3,900 -120 Descending Minneapolis Center